Overview Statistics Trail Chart Weather Telemetry Raw packets
 

This is the latest recevied weather packets stored in our database for station/object ED3YAB-7. If no packets are shown the sender has not sent any weather packets the latest 10 day(s).

<< 1 2 3 4 5 6 7 >>
Time Temp. Humidity Pressure Rain* Wind** Luminosity Snow
1778133751 11.67° C 61% 1018.8 hPa - - - -
1778132551 11.11° C 63% 1018.8 hPa - - - -
1778131350 10.56° C 64% 1018.6 hPa - - - -
1778130147 10° C 66% 1018.5 hPa - - - -
1778128947 9.44° C 66% 1018.5 hPa - - - -
1778127750 9.44° C 66% 1018.3 hPa - - - -
1778125347 10° C 65% 1018.5 hPa - - - -
1778124148 10° C 64% 1018.5 hPa - - - -
1778122947 10° C 65% 1018.6 hPa - - - -
1778121747 10.56° C 65% 1018.5 hPa - - - -
1778120547 9.44° C 65% 1018.3 hPa - - - -
1778119347 10.56° C 64% 1018.3 hPa - - - -
1778118147 10° C 65% 1018.6 hPa - - - -
1778116947 10.56° C 63% 1018.5 hPa - - - -
1778115747 11.11° C 63% 1018.6 hPa - - - -
1778114547 10.56° C 62% 1018.8 hPa - - - -
1778113343 11.11° C 62% 1018.8 hPa - - - -
1778112146 11.11° C 63% 1018.9 hPa - - - -
1778109743 11.11° C 62% 1018.9 hPa - - - -
1778107345 11.11° C 61% 1018.8 hPa - - - -
1778106141 12.22° C 59% 1018.8 hPa - - - -
1778104941 12.22° C 59% 1018.6 hPa - - - -
1778104599 11.67° C 59% 1018.6 hPa - - - -
1778103399 12.22° C 58% 1018.7 hPa - - - -
1778102199 12.78° C 55% 1018.6 hPa - - - -

* Rain since midnight (hover to see other rain measurements)
** Current wind speed in m/s (hover to see current wind gust speed)